Dayton, OH

10:26 AM EST on February 13, 2016 (GMT -0500)
Beavercreek | | Change Station
CLOSE
Current Station
Personal Weather Station
Location: Beavercreek, OH
Elevation: 942 ft
Nearby Weather Stations

Elev 942 ft 39.74 °N, 84.08 °W | Updated 22 seconds ago

Clear
Clear
11.2 °F
Feels Like 11 °F
N
2.0
Wind Variable Wind from West
Gusts 7.0 mph

Today
High -- | Low -- °F
--% Chance of Precip.
Yesterday
High -- | Low -- °F
Precip. -- in
Pressure 30.57 in
Visibility 10.0 miles
Clouds Clear
Windchill 11 °F
Dew Point -9 °F
Humidity 39%
Rainfall 0.00 in
Snow Depth Not available.
7:31 AM 6:09 PM
Waxing Crescent, 31% visible
METAR KFFO 131458Z VRB06KT 10SM CLR M12/M22 A3051 RMK AO2A SLP351 T11251224 52021
Pressure 30.57 in
Visibility 10.0 miles
Clouds Clear
Windchill 11 °F
Dew Point -9 °F
Humidity 39%
Rainfall 0.00 in
Snow Depth Not available.
7:31 AM 6:09 PM
Waxing Crescent, 31% visible
METAR KFFO 131458Z VRB06KT 10SM CLR M12/M22 A3051 RMK AO2A SLP351 T11251224 52021

10-Day Weather Forecast

Almanac

Astronomy

Feb. 13, 2016 Rise Set
Actual Time
Civil Twilight
Nautical Twilight
Astronomical Twilight
Moon
Length of Visible Light
Length of Day
Tomorrow will be .
, % of the Moon is Illuminated

Today's Extremes

State Highs State Lows

Community

WunderPhotos

Upload Photos

1,892,580 photos uploaded!

WunderBlog® & News

Nearby

Air Quality

  Air Quality AQ Index Pollutant
Not available.

Snow Depth

Station Depth Elevation

Earthquake Activity

City Distance Mag. Time & Date
Minimum magnitude displayed is 2.5.

Coastal Water Temperatures

Place Temperature

Stations

Nearby Weather Stations

Station Location Temp. Windchill Dew Point Humidity Wind Precip. Elev Updated Type
                   

Watches & Warnings

There are currently no watches in effect.